Time;durP1;ratioP1;P1;durP2;ratioP2;P2;SDS_P1;SDS_P2;PMS_P1;PMS_P2;Temp;Humidity;BMP_temperature;BMP_pressure;BME280_temperature;BME280_humidity;BME280_pressure;Samples;Min_cycle;Max_cycle;Signal;HPM_P1;HPM_P2
2022/04/27 00:00:31;;;;;;;14.50;13.00;;;7.90;99.90;;;;;;5091446;28;20669;-65
2022/04/27 00:02:57;;;;;;;18.97;13.63;;;7.90;99.90;;;;;;5091510;28;20177;-67
2022/04/27 00:05:25;;;;;;;14.17;12.87;;;7.90;99.90;;;;;;5108639;28;20641;-65
2022/04/27 00:07:50;;;;;;;19.50;13.17;;;7.90;99.90;;;;;;5111637;28;20175;-65
2022/04/27 00:10:18;;;;;;;13.83;12.53;;;8.00;99.90;;;;;;5094247;28;20174;-66
2022/04/27 00:12:45;;;;;;;17.00;12.60;;;8.00;99.90;;;;;;5091342;28;20170;-67
2022/04/27 00:15:11;;;;;;;15.03;13.43;;;8.00;99.90;;;;;;5106031;28;20181;-67
2022/04/27 00:17:37;;;;;;;12.93;11.33;;;8.00;99.90;;;;;;5108614;28;20663;-66
2022/04/27 00:20:04;;;;;;;11.03;9.87;;;8.00;99.90;;;;;;5092228;28;20378;-67
2022/04/27 00:22:29;;;;;;;15.33;11.70;;;8.00;99.90;;;;;;5091217;28;20623;-67
2022/04/27 00:25:00;;;;;;;11.37;10.30;;;7.90;99.90;;;;;;5111000;28;20188;-67
2022/04/27 00:27:27;;;;;;;14.43;12.47;;;7.80;99.90;;;;;;5110014;28;20658;-66
2022/04/27 00:29:52;;;;;;;14.33;12.93;;;7.80;99.90;;;;;;5092030;28;20212;-66
2022/04/27 00:32:18;;;;;;;15.33;12.77;;;7.70;99.90;;;;;;5090926;28;20201;-66
2022/04/27 00:34:43;;;;;;;15.80;12.20;;;7.70;99.90;;;;;;5106514;28;20180;-66
2022/04/27 00:37:09;;;;;;;16.23;13.70;;;7.60;99.90;;;;;;5108336;28;20226;-66
2022/04/27 00:39:35;;;;;;;14.60;11.40;;;7.60;99.90;;;;;;5095576;28;20184;-67
2022/04/27 00:42:24;;;;;;;19.93;12.73;;;7.60;99.90;;;;;;5090927;28;20679;-67
2022/04/27 00:44:50;;;;;;;18.30;13.00;;;7.50;99.90;;;;;;5107368;28;20173;-67
2022/04/27 00:47:18;;;;;;;14.27;12.77;;;7.40;99.90;;;;;;5113328;28;20563;-66
2022/04/27 00:49:46;;;;;;;13.83;11.50;;;7.40;99.90;;;;;;5101962;28;20189;-67
2022/04/27 00:52:14;;;;;;;16.07;11.93;;;7.40;99.90;;;;;;5133253;27;20180;-68
2022/04/27 00:54:55;;;;;;;17.43;13.00;;;7.40;99.90;;;;;;5133819;27;20648;-67
2022/04/27 00:57:23;;;;;;;18.00;13.40;;;7.40;99.90;;;;;;5118229;27;20280;-67
2022/04/27 00:59:49;;;;;;;18.10;12.83;;;7.40;99.90;;;;;;5113420;28;20165;-67
2022/04/27 01:02:16;;;;;;;16.30;12.83;;;7.40;99.90;;;;;;5099025;28;20201;-66
2022/04/27 01:04:42;;;;;;;14.37;12.53;;;7.40;99.90;;;;;;5095291;28;20170;-67
2022/04/27 01:07:08;;;;;;;14.03;11.97;;;7.40;99.90;;;;;;5093957;28;20272;-67
2022/04/27 01:09:33;;;;;;;14.50;12.97;;;7.40;99.90;;;;;;5094339;28;20652;-66
2022/04/27 01:12:01;;;;;;;14.00;12.60;;;7.50;99.90;;;;;;5114520;28;20181;-67
2022/04/27 01:14:27;;;;;;;14.53;12.53;;;7.50;99.90;;;;;;5114360;28;20177;-67
2022/04/27 01:16:54;;;;;;;20.03;12.77;;;7.50;99.90;;;;;;5094588;28;20200;-67
2022/04/27 01:19:23;;;;;;;14.10;11.93;;;7.50;99.90;;;;;;5092362;28;20186;-66
2022/04/27 01:21:49;;;;;;;15.40;13.23;;;7.50;99.90;;;;;;5110756;28;20211;-66
2022/04/27 01:24:19;;;;;;;17.20;12.33;;;7.50;99.90;;;;;;5114076;28;20165;-66
2022/04/27 01:26:46;;;;;;;15.23;12.97;;;7.50;99.90;;;;;;5096352;28;20747;-66
2022/04/27 01:29:15;;;;;;;14.67;13.17;;;7.50;99.90;;;;;;5093548;28;20165;-66
2022/04/27 01:31:41;;;;;;;13.70;12.50;;;7.50;99.90;;;;;;5109547;28;20712;-67
2022/04/27 01:34:06;;;;;;;19.17;12.10;;;7.50;99.90;;;;;;5114334;28;20215;-67
2022/04/27 01:36:32;;;;;;;14.13;12.27;;;7.50;99.90;;;;;;5097762;28;20301;-67
2022/04/27 01:38:57;;;;;;;14.07;12.77;;;7.50;99.90;;;;;;5093418;28;20227;-67
2022/04/27 01:41:23;;;;;;;15.43;12.80;;;7.40;99.90;;;;;;5105590;28;20197;-66
2022/04/27 01:43:49;;;;;;;14.43;12.60;;;7.40;99.90;;;;;;5113858;28;20255;-66
2022/04/27 01:46:14;;;;;;;16.20;14.20;;;7.40;99.90;;;;;;5101123;28;20233;-66
2022/04/27 01:48:40;;;;;;;16.97;13.83;;;7.40;99.90;;;;;;5094411;28;20186;-67
2022/04/27 01:51:06;;;;;;;14.57;13.17;;;7.40;99.90;;;;;;5093332;28;20192;-67
2022/04/27 01:56:16;;;;;;;16.53;14.80;;;7.30;99.90;;;;;;5112943;28;20301;-66
2022/04/27 01:58:42;;;;;;;14.93;13.53;;;7.30;99.90;;;;;;5105217;28;20181;-66
2022/04/27 02:01:11;;;;;;;15.23;13.47;;;7.30;99.90;;;;;;5093242;28;20197;-66
2022/04/27 02:03:37;;;;;;;16.03;13.60;;;7.30;99.90;;;;;;5091995;28;20185;-66
2022/04/27 02:06:03;;;;;;;16.07;13.10;;;7.20;99.90;;;;;;5093780;28;20189;-66
2022/04/27 02:08:29;;;;;;;19.67;13.90;;;7.20;99.90;;;;;;5092936;28;20166;-66
2022/04/27 02:10:55;;;;;;;14.90;13.33;;;7.20;99.90;;;;;;5096112;28;20176;-66
2022/04/27 02:13:20;;;;;;;16.30;14.50;;;7.20;99.90;;;;;;5113018;28;20173;-66
2022/04/27 02:15:46;;;;;;;18.90;13.20;;;7.20;99.90;;;;;;5108669;28;20193;-65
2022/04/27 02:18:12;;;;;;;15.53;13.27;;;7.20;99.90;;;;;;5091443;28;20177;-66
2022/04/27 02:20:37;;;;;;;16.30;13.90;;;7.20;99.90;;;;;;5093434;28;20211;-66
2022/04/27 02:23:03;;;;;;;14.33;12.93;;;7.20;99.90;;;;;;5111395;28;20169;-66
2022/04/27 02:25:29;;;;;;;16.43;14.07;;;7.20;99.90;;;;;;5112726;28;20554;-66
2022/04/27 02:27:55;;;;;;;15.30;13.67;;;7.20;99.90;;;;;;5093087;28;20640;-66
2022/04/27 02:30:21;;;;;;;15.40;13.63;;;7.10;99.90;;;;;;5091209;28;20223;-66
2022/04/27 02:32:47;;;;;;;14.93;13.43;;;7.10;99.90;;;;;;5110490;28;20177;-66
2022/04/27 02:35:14;;;;;;;24.23;15.50;;;7.10;99.90;;;;;;5126996;28;20589;-66
2022/04/27 02:37:40;;;;;;;15.03;13.60;;;7.00;99.90;;;;;;5112510;28;20184;-67
2022/04/27 02:40:08;;;;;;;15.97;14.23;;;7.00;99.90;;;;;;5107388;28;20197;-66
2022/04/27 02:42:33;;;;;;;16.07;14.40;;;6.90;99.90;;;;;;5094248;28;20239;-66
2022/04/27 02:44:59;;;;;;;17.47;15.43;;;6.90;99.90;;;;;;5093467;28;20166;-67
2022/04/27 02:47:25;;;;;;;16.17;14.47;;;6.80;99.90;;;;;;5111651;28;20204;-65
2022/04/27 02:52:35;;;;;;;21.30;14.73;;;6.70;99.90;;;;;;5093128;28;20669;-67
2022/04/27 02:55:01;;;;;;;17.17;15.57;;;6.70;99.90;;;;;;5091164;28;20282;-66
2022/04/27 02:57:26;;;;;;;16.20;14.63;;;6.60;99.90;;;;;;5092570;28;20261;-66
2022/04/27 02:59:52;;;;;;;20.63;14.70;;;6.60;99.90;;;;;;5093097;28;20618;-66
2022/04/27 03:02:18;;;;;;;20.97;14.73;;;6.50;99.90;;;;;;5092416;28;20205;-66
2022/04/27 03:04:43;;;;;;;16.27;14.60;;;6.40;99.90;;;;;;5112163;28;20259;-66
2022/04/27 03:07:09;;;;;;;19.27;15.17;;;6.40;99.90;;;;;;5111738;28;20188;-67
2022/04/27 03:09:36;;;;;;;17.23;15.20;;;6.40;99.90;;;;;;5093078;28;20698;-67
2022/04/27 03:12:01;;;;;;;18.37;16.20;;;6.40;99.90;;;;;;5091953;28;20649;-67
2022/04/27 03:14:30;;;;;;;18.27;15.33;;;6.40;99.90;;;;;;5101479;28;20178;-67
2022/04/27 03:16:57;;;;;;;19.77;15.67;;;6.20;99.90;;;;;;5104686;28;20569;-66
2022/04/27 03:19:23;;;;;;;18.90;16.27;;;6.20;99.90;;;;;;5111781;28;20168;-66
2022/04/27 03:21:48;;;;;;;21.17;16.77;;;6.20;99.90;;;;;;5099108;28;20595;-66
2022/04/27 03:24:14;;;;;;;19.60;16.90;;;6.10;99.90;;;;;;5090667;28;20170;-67
2022/04/27 03:26:40;;;;;;;17.27;15.13;;;6.10;99.90;;;;;;5100965;28;20206;-66
2022/04/27 03:29:06;;;;;;;26.63;15.20;;;6.00;99.90;;;;;;5110376;28;20165;-66
2022/04/27 03:31:35;;;;;;;23.00;16.23;;;6.00;99.90;;;;;;5111846;28;20211;-66
2022/04/27 03:34:01;;;;;;;18.97;15.70;;;5.90;99.90;;;;;;5112258;28;20196;-67
2022/04/27 03:36:27;;;;;;;23.13;16.50;;;5.90;99.90;;;;;;5091219;28;20631;-66
2022/04/27 03:38:53;;;;;;;20.97;15.97;;;5.90;99.90;;;;;;5090533;28;20195;-66
2022/04/27 03:41:22;;;;;;;23.93;16.47;;;5.90;99.90;;;;;;5109729;28;20677;-66
2022/04/27 03:43:49;;;;;;;20.67;15.93;;;5.80;99.90;;;;;;5111981;28;20211;-66
2022/04/27 03:46:14;;;;;;;16.73;14.93;;;5.80;99.90;;;;;;5092282;28;20195;-66
2022/04/27 03:48:40;;;;;;;20.30;16.13;;;5.80;99.90;;;;;;5092775;28;20169;-66
2022/04/27 03:51:06;;;;;;;24.83;18.27;;;5.80;99.90;;;;;;5091579;28;20170;-66
2022/04/27 03:53:32;;;;;;;19.43;16.63;;;5.80;99.90;;;;;;5103895;28;20177;-66
2022/04/27 03:55:57;;;;;;;18.77;15.60;;;5.80;99.90;;;;;;5111520;28;20231;-66
2022/04/27 03:58:23;;;;;;;24.67;16.43;;;5.80;99.90;;;;;;5099344;28;20585;-66
2022/04/27 04:00:48;;;;;;;20.97;17.10;;;5.80;99.90;;;;;;5091521;28;20221;-66
2022/04/27 04:03:14;;;;;;;20.93;17.07;;;5.80;99.90;;;;;;5101720;28;20181;-66
2022/04/27 04:05:41;;;;;;;26.03;17.57;;;5.80;99.90;;;;;;5101646;28;20247;-66
2022/04/27 04:08:07;;;;;;;24.57;17.47;;;5.80;99.90;;;;;;5090153;28;20184;-66
2022/04/27 04:10:33;;;;;;;24.57;18.00;;;5.80;99.90;;;;;;5097310;28;20877;-66
2022/04/27 04:12:58;;;;;;;27.17;17.70;;;5.90;99.90;;;;;;5110605;28;20626;-66
2022/04/27 04:15:24;;;;;;;21.00;17.43;;;5.90;99.90;;;;;;5106740;28;20174;-66
2022/04/27 04:17:50;;;;;;;21.90;18.13;;;6.00;99.90;;;;;;5090076;28;20268;-66
2022/04/27 04:20:20;;;;;;;23.80;17.00;;;6.00;99.90;;;;;;5092741;28;20237;-66
2022/04/27 04:22:48;;;;;;;20.17;18.10;;;6.10;99.90;;;;;;5095356;28;20258;-66
2022/04/27 04:30:43;;;;;;;19.77;17.60;;;6.20;99.90;;;;;;5108579;28;20192;-66
2022/04/27 04:33:09;;;;;;;19.90;17.63;;;6.30;99.90;;;;;;5095010;28;20178;-66
2022/04/27 04:35:36;;;;;;;20.10;17.50;;;6.40;99.90;;;;;;5099382;28;20205;-66
2022/04/27 04:38:04;;;;;;;21.57;17.17;;;6.40;99.90;;;;;;5113955;28;20215;-66
2022/04/27 04:40:30;;;;;;;20.00;16.77;;;6.60;99.90;;;;;;5111285;28;20219;-66
2022/04/27 04:42:56;;;;;;;24.97;16.60;;;6.70;99.90;;;;;;5093389;28;20208;-67
2022/04/27 04:45:23;;;;;;;18.73;16.77;;;6.70;99.90;;;;;;5094934;28;20169;-67
2022/04/27 04:47:49;;;;;;;20.57;16.60;;;6.80;99.90;;;;;;5115104;28;20164;-66
2022/04/27 04:50:14;;;;;;;19.93;17.23;;;6.90;99.90;;;;;;5105805;28;20169;-66
2022/04/27 04:52:40;;;;;;;17.37;15.63;;;6.90;99.90;;;;;;5127754;27;20592;-66
2022/04/27 04:55:06;;;;;;;19.87;15.20;;;6.90;99.90;;;;;;5135155;27;20176;-66
2022/04/27 04:57:32;;;;;;;21.83;16.00;;;7.00;99.90;;;;;;5124368;27;20638;-66
2022/04/27 04:59:58;;;;;;;25.03;16.43;;;7.10;99.90;;;;;;5114821;28;20184;-66
2022/04/27 05:02:23;;;;;;;21.87;16.17;;;7.10;99.90;;;;;;5106432;28;20297;-66
2022/04/27 05:04:50;;;;;;;20.53;16.70;;;7.10;99.90;;;;;;5095020;28;20255;-66
2022/04/27 05:07:18;;;;;;;16.33;14.57;;;7.20;99.90;;;;;;5092588;28;20189;-66
2022/04/27 05:09:44;;;;;;;16.93;15.13;;;7.10;99.90;;;;;;5096712;28;20173;-66
2022/04/27 05:12:10;;;;;;;18.77;15.23;;;7.20;99.90;;;;;;5113279;28;20233;-67
2022/04/27 05:14:36;;;;;;;18.50;15.70;;;7.30;99.90;;;;;;5112648;28;20181;-66
2022/04/27 05:17:01;;;;;;;16.57;14.87;;;7.30;99.90;;;;;;5093893;28;20197;-67
2022/04/27 05:19:27;;;;;;;20.70;15.10;;;7.40;99.90;;;;;;5093648;28;20223;-67
2022/04/27 05:21:53;;;;;;;19.50;15.27;;;7.40;99.90;;;;;;5112403;28;20211;-67
2022/04/27 05:24:18;;;;;;;18.87;14.87;;;7.50;99.90;;;;;;5107959;28;20178;-67
2022/04/27 05:26:44;;;;;;;18.87;14.90;;;7.50;99.90;;;;;;5093498;28;20186;-67
2022/04/27 05:31:54;;;;;;;16.07;14.47;;;7.50;99.90;;;;;;5113993;28;20188;-67
2022/04/27 05:34:20;;;;;;;15.97;14.33;;;7.60;99.90;;;;;;5107813;28;20181;-66
2022/04/27 05:36:46;;;;;;;18.10;14.43;;;7.60;99.90;;;;;;5113202;28;20287;-67
2022/04/27 05:39:12;;;;;;;18.57;14.83;;;7.70;99.90;;;;;;5110551;28;20280;-67
2022/04/27 05:41:38;;;;;;;17.13;15.40;;;7.80;99.90;;;;;;5093256;28;20201;-66
2022/04/27 05:44:07;;;;;;;17.33;15.40;;;7.80;99.90;;;;;;5094765;28;20173;-66
2022/04/27 05:46:37;;;;;;;18.47;16.17;;;7.90;99.90;;;;;;5113217;28;20201;-66
2022/04/27 05:49:03;;;;;;;16.90;14.27;;;8.00;99.90;;;;;;5113113;28;20169;-66
2022/04/27 05:51:29;;;;;;;17.07;13.93;;;8.10;99.90;;;;;;5092420;28;20193;-66
2022/04/27 05:53:55;;;;;;;15.87;13.30;;;8.20;99.90;;;;;;5110165;28;20192;-66
2022/04/27 05:56:20;;;;;;;16.20;14.23;;;8.30;99.90;;;;;;5113385;28;20189;-66
2022/04/27 05:58:47;;;;;;;16.40;13.30;;;8.40;99.90;;;;;;5110565;28;20193;-67
2022/04/27 06:01:13;;;;;;;16.20;14.50;;;8.50;99.90;;;;;;5111792;28;20205;-67
2022/04/27 06:03:38;;;;;;;22.23;13.43;;;8.70;99.90;;;;;;5099361;28;20532;-66
2022/04/27 06:06:04;;;;;;;17.33;13.00;;;9.00;99.90;;;;;;5091295;28;20189;-67
2022/04/27 06:08:30;;;;;;;14.03;12.70;;;9.30;99.90;;;;;;5104324;28;20173;-67
2022/04/27 06:10:55;;;;;;;16.27;11.90;;;9.70;99.90;;;;;;5115783;28;20179;-67
2022/04/27 06:13:21;;;;;;;14.90;11.87;;;9.90;99.90;;;;;;5121378;28;20190;-66
2022/04/27 06:15:47;;;;;;;12.20;9.90;;;10.30;99.90;;;;;;5110158;28;20200;-67
2022/04/27 06:18:12;;;;;;;13.23;10.57;;;10.60;99.90;;;;;;5117659;28;20177;-67
2022/04/27 06:20:38;;;;;;;14.07;10.77;;;10.90;99.90;;;;;;5119394;28;20196;-67
2022/04/27 06:23:04;;;;;;;12.20;10.93;;;11.10;99.90;;;;;;5107723;28;20215;-66
2022/04/27 06:25:30;;;;;;;11.97;10.50;;;11.00;99.90;;;;;;5092579;28;20903;-67
2022/04/27 06:27:56;;;;;;;12.37;11.13;;;11.00;99.90;;;;;;5096197;28;20173;-67
2022/04/27 06:30:25;;;;;;;12.57;11.20;;;11.10;99.90;;;;;;5113509;28;20225;-66
2022/04/27 06:32:51;;;;;;;12.00;10.90;;;11.30;99.90;;;;;;5109043;28;20185;-66
2022/04/27 06:35:17;;;;;;;18.80;11.50;;;11.50;99.90;;;;;;5092090;28;20261;-67
2022/04/27 06:37:42;;;;;;;16.60;11.47;;;11.70;99.90;;;;;;5092304;28;20268;-66
2022/04/27 06:40:09;;;;;;;11.70;10.57;;;11.80;99.90;;;;;;5113421;28;20169;-66
2022/04/27 06:42:35;;;;;;;15.07;11.47;;;12.10;99.90;;;;;;5110858;28;20327;-66
2022/04/27 06:45:02;;;;;;;10.53;9.50;;;12.50;99.90;;;;;;5092813;28;20268;-67
2022/04/27 06:47:27;;;;;;;12.83;11.37;;;12.70;99.90;;;;;;5109588;28;20283;-66
2022/04/27 06:49:53;;;;;;;12.07;10.30;;;12.60;99.90;;;;;;5112255;28;20264;-66
2022/04/27 06:52:19;;;;;;;13.43;11.53;;;12.70;99.90;;;;;;5112964;28;20172;-66
2022/04/27 06:54:44;;;;;;;11.63;10.10;;;13.00;99.90;;;;;;5110017;28;20214;-66
2022/04/27 06:57:10;;;;;;;12.30;9.70;;;13.30;99.90;;;;;;5092556;28;20189;-66
2022/04/27 06:59:35;;;;;;;11.67;10.50;;;13.60;99.90;;;;;;5093695;28;20182;-68
2022/04/27 07:02:02;;;;;;;11.87;10.17;;;13.60;99.90;;;;;;5111529;28;20955;-68
2022/04/27 07:04:29;;;;;;;14.80;9.90;;;14.00;99.90;;;;;;5092730;28;20707;-67
2022/04/27 07:06:55;;;;;;;9.87;8.87;;;14.40;99.90;;;;;;5091631;28;20193;-67
2022/04/27 07:09:22;;;;;;;12.63;9.13;;;14.80;99.90;;;;;;5111032;28;20238;-67
2022/04/27 07:11:47;;;;;;;10.23;9.23;;;15.20;99.90;;;;;;5113819;28;20176;-67
2022/04/27 07:14:16;;;;;;;10.20;9.30;;;15.70;99.90;;;;;;5095287;28;20694;-67
2022/04/27 07:16:42;;;;;;;10.80;9.70;;;15.80;99.90;;;;;;5092414;28;20272;-68
2022/04/27 07:19:08;;;;;;;11.77;10.37;;;15.80;99.90;;;;;;5107517;28;20196;-67
2022/04/27 07:21:33;;;;;;;13.20;9.50;;;16.00;99.90;;;;;;5089758;28;20209;-67
2022/04/27 07:24:02;;;;;;;11.13;10.03;;;16.00;99.90;;;;;;5104745;28;20176;-67
2022/04/27 07:26:28;;;;;;;13.23;9.80;;;16.00;99.90;;;;;;5111547;28;20191;-67
2022/04/27 07:28:55;;;;;;;14.03;9.97;;;15.70;99.90;;;;;;5099984;28;20231;-67
2022/04/27 07:31:21;;;;;;;11.03;9.93;;;15.80;99.90;;;;;;5091425;28;20596;-67
2022/04/27 07:33:47;;;;;;;11.67;8.97;;;15.80;99.90;;;;;;5101829;28;20177;-66
2022/04/27 07:36:13;;;;;;;12.60;9.70;;;16.00;99.90;;;;;;5111457;28;20563;-67
2022/04/27 07:38:38;;;;;;;11.57;8.90;;;16.40;99.90;;;;;;5103469;28;20474;-67
2022/04/27 07:41:05;;;;;;;10.07;9.17;;;16.90;99.90;;;;;;5097047;28;20180;-67
2022/04/27 07:43:31;;;;;;;9.37;8.30;;;17.50;99.90;;;;;;5111901;28;20176;-67
2022/04/27 07:45:56;;;;;;;9.20;8.30;;;17.40;99.90;;;;;;5106984;28;20663;-67
2022/04/27 07:48:22;;;;;;;13.57;9.30;;;17.50;99.90;;;;;;5091470;28;20180;-67
2022/04/27 07:50:47;;;;;;;12.23;8.93;;;17.40;99.90;;;;;;5093594;28;20177;-67
2022/04/27 07:53:13;;;;;;;10.00;9.07;;;17.40;99.90;;;;;;5110704;28;20185;-67
2022/04/27 07:55:39;;;;;;;9.37;8.40;;;17.60;99.90;;;;;;5115075;28;20204;-67
2022/04/27 07:58:04;;;;;;;8.97;8.07;;;18.10;99.90;;;;;;5095713;28;20197;-67
2022/04/27 08:00:31;;;;;;;9.00;8.10;;;18.00;99.90;;;;;;5095760;28;20553;-67
2022/04/27 08:02:57;;;;;;;10.07;8.60;;;18.10;99.90;;;;;;5114080;28;20216;-67
2022/04/27 08:05:22;;;;;;;8.57;7.77;;;18.20;99.90;;;;;;5115328;28;20190;-67
2022/04/27 08:07:48;;;;;;;10.37;8.73;;;18.30;99.90;;;;;;5113990;28;20193;-67
2022/04/27 08:10:17;;;;;;;10.53;8.67;;;18.40;99.90;;;;;;5113962;28;20183;-66
2022/04/27 08:12:46;;;;;;;11.03;8.30;;;18.90;99.90;;;;;;5099952;28;20209;-67
2022/04/27 08:15:16;;;;;;;8.60;7.68;;;19.60;99.90;;;;;;5095287;28;20201;-67
2022/04/27 08:18:08;;;;;;;8.77;7.88;;;20.10;99.90;;;;;;5094376;28;20665;-67
2022/04/27 08:23:25;;;;;;;8.82;7.85;;;20.60;99.90;;;;;;5095678;28;20268;-67
2022/04/27 08:25:51;;;;;;;8.98;7.32;;;20.50;99.90;;;;;;5094951;28;20190;-67
2022/04/27 08:28:17;;;;;;;11.52;7.78;;;20.60;99.90;;;;;;5094586;28;20658;-67
2022/04/27 08:30:47;;;;;;;10.70;8.60;;;20.90;99.90;;;;;;5095024;28;20165;-67
2022/04/27 08:33:13;;;;;;;8.35;7.55;;;20.90;99.90;;;;;;5093627;28;20268;-65
2022/04/27 08:35:39;;;;;;;10.55;7.57;;;21.00;99.90;;;;;;5093039;28;20293;-65
2022/04/27 08:38:06;;;;;;;8.35;7.53;;;21.40;99.90;;;;;;5094905;28;20193;-65
2022/04/27 08:40:35;;;;;;;8.73;7.30;;;21.70;99.90;;;;;;5094759;28;20170;-65
2022/04/27 08:43:01;;;;;;;9.25;7.20;;;21.90;99.90;;;;;;5093491;28;20197;-64
2022/04/27 08:45:28;;;;;;;8.65;7.72;;;21.90;99.90;;;;;;5092810;28;20203;-66
2022/04/27 08:47:54;;;;;;;7.70;6.82;;;22.10;99.90;;;;;;5094711;28;20226;-66
2022/04/27 08:50:21;;;;;;;7.43;6.70;;;22.10;99.90;;;;;;5094502;28;20161;-65
2022/04/27 08:52:48;;;;;;;9.95;7.07;;;21.80;99.90;;;;;;5094606;28;20642;-65
2022/04/27 08:55:14;;;;;;;7.97;7.18;;;21.20;99.90;;;;;;5094474;28;20584;-66
2022/04/27 08:57:40;;;;;;;7.50;6.72;;;21.10;99.90;;;;;;5094450;28;20173;-65
2022/04/27 09:00:08;;;;;;;7.43;6.57;;;21.10;99.90;;;;;;5093107;28;20204;-66
2022/04/27 09:02:35;;;;;;;8.95;6.95;;;20.90;99.90;;;;;;5092813;28;20213;-65
2022/04/27 09:05:29;;;;;;;11.85;6.88;;;20.80;99.90;;;;;;5093398;28;20182;-66
2022/04/27 09:07:56;;;;;;;7.00;6.30;;;20.80;99.90;;;;;;5085225;28;20186;-66
2022/04/27 09:10:24;;;;;;;7.30;6.60;;;21.20;99.90;;;;;;5092769;28;20180;-65
2022/04/27 09:12:53;;;;;;;7.78;6.45;;;21.30;99.90;;;;;;5094181;28;20166;-65
2022/04/27 09:15:21;;;;;;;7.18;6.30;;;21.60;99.90;;;;;;5093679;28;20252;-65
2022/04/27 09:20:47;;;;;;;9.68;6.97;;;21.10;99.90;;;;;;5094256;28;20196;-67
2022/04/27 09:23:21;;;;;;;7.53;6.68;;;20.90;99.90;;;;;;5093792;28;20197;-67
2022/04/27 09:25:47;;;;;;;8.30;6.13;;;20.60;99.90;;;;;;5093470;28;20216;-67
2022/04/27 09:28:13;;;;;;;7.10;6.40;;;20.50;99.90;;;;;;5093101;28;20219;-67
2022/04/27 09:30:38;;;;;;;6.85;6.22;;;20.80;99.90;;;;;;5093901;28;20170;-67
2022/04/27 09:33:04;;;;;;;6.78;6.15;;;21.20;99.90;;;;;;5094253;28;20576;-66
2022/04/27 09:35:32;;;;;;;6.97;6.35;;;21.10;99.90;;;;;;5093118;28;20189;-64
2022/04/27 09:38:14;;;;;;;8.05;6.80;;;20.90;99.90;;;;;;5093685;28;20250;-64
2022/04/27 09:40:54;;;;;;;7.35;6.60;;;21.00;99.90;;;;;;5092529;28;20180;-64
2022/04/27 09:43:49;;;;;;;7.97;6.85;;;21.10;99.90;;;;;;5093281;28;20530;-65
2022/04/27 09:46:17;;;;;;;7.72;6.82;;;21.40;99.90;;;;;;5093013;28;20697;-64
2022/04/27 09:48:46;;;;;;;8.23;6.65;;;21.60;99.90;;;;;;5093456;28;20193;-65
2022/04/27 09:51:15;;;;;;;9.82;6.85;;;21.30;99.90;;;;;;5093804;28;20646;-65
2022/04/27 09:53:42;;;;;;;7.63;6.93;;;21.60;99.90;;;;;;5109758;28;20169;-66
2022/04/27 09:56:12;;;;;;;6.97;6.40;;;21.60;99.90;;;;;;5113320;28;20257;-67
2022/04/27 09:58:43;;;;;;;6.95;6.35;;;21.70;99.90;;;;;;5113964;28;20161;-66
2022/04/27 10:01:11;;;;;;;7.40;6.70;;;22.10;99.90;;;;;;5100332;28;20304;-66
2022/04/27 10:03:39;;;;;;;6.97;6.38;;;22.00;99.90;;;;;;5094437;28;20522;-66
2022/04/27 10:06:06;;;;;;;7.05;6.43;;;22.00;99.90;;;;;;5091833;28;20193;-65
2022/04/27 10:08:35;;;;;;;7.32;6.38;;;21.90;99.90;;;;;;5093164;28;20169;-65
2022/04/27 10:11:00;;;;;;;7.43;6.30;;;22.30;99.90;;;;;;5093336;28;20534;-66
2022/04/27 10:13:27;;;;;;;6.65;6.00;;;22.40;99.90;;;;;;5093128;28;20370;-65
2022/04/27 10:15:54;;;;;;;8.95;6.00;;;22.20;99.90;;;;;;5092857;28;20192;-65
2022/04/27 10:18:20;;;;;;;7.00;6.28;;;22.30;99.90;;;;;;5091775;28;20180;-65
2022/04/27 10:20:51;;;;;;;8.50;6.28;;;22.30;99.90;;;;;;5093192;28;20196;-65
2022/04/27 10:23:27;;;;;;;6.93;6.22;;;22.70;99.90;;;;;;5092855;28;20205;-66
2022/04/27 10:26:29;;;;;;;7.05;6.35;;;23.00;99.90;;;;;;5092855;28;20220;-66
2022/04/27 10:28:57;;;;;;;8.48;7.68;;;23.30;99.90;;;;;;5108170;28;20218;-66
2022/04/27 10:31:46;;;;;;;7.25;6.55;;;23.20;99.90;;;;;;5102744;28;20181;-66
2022/04/27 10:34:27;;;;;;;7.55;6.85;;;22.70;99.90;;;;;;5093462;28;20177;-66
2022/04/27 10:36:57;;;;;;;7.22;6.53;;;22.70;99.90;;;;;;5107059;28;20209;-65
2022/04/27 10:39:24;;;;;;;7.47;6.75;;;23.00;99.90;;;;;;5117423;27;20172;-66
2022/04/27 10:41:57;;;;;;;8.27;6.75;;;22.90;99.90;;;;;;5096806;27;20316;-65
2022/04/27 10:44:47;;;;;;;7.25;6.55;;;23.00;99.90;;;;;;5092813;28;20597;-65
2022/04/27 10:47:20;;;;;;;10.25;6.70;;;23.10;99.90;;;;;;5099577;28;20188;-65
2022/04/27 10:49:47;;;;;;;7.55;6.75;;;22.50;99.90;;;;;;5096874;28;20180;-67
2022/04/27 10:52:13;;;;;;;7.72;6.97;;;22.20;99.90;;;;;;5092240;28;20173;-67
2022/04/27 10:54:41;;;;;;;9.45;7.30;;;22.40;99.90;;;;;;5091656;28;20264;-65
2022/04/27 10:57:15;;;;;;;7.70;6.63;;;22.80;99.90;;;;;;5093281;28;20197;-69
2022/04/27 10:59:44;;;;;;;7.88;7.20;;;23.00;99.90;;;;;;5093384;28;20181;-67
2022/04/27 11:02:34;;;;;;;7.10;6.43;;;23.30;99.90;;;;;;5106536;28;20558;-66
2022/04/27 11:05:04;;;;;;;7.75;6.95;;;23.30;99.90;;;;;;5108622;28;20180;-65
2022/04/27 11:07:44;;;;;;;10.38;7.70;;;22.60;99.00;;;;;;5094371;28;20570;-65
2022/04/27 11:10:12;;;;;;;9.98;7.03;;;22.40;99.90;;;;;;5106125;28;21460;-65
2022/04/27 11:12:39;;;;;;;7.40;6.72;;;22.90;99.90;;;;;;5108570;28;20180;-65
2022/04/27 11:15:06;;;;;;;10.02;7.45;;;22.90;98.20;;;;;;5092132;28;20531;-66
2022/04/27 11:17:35;;;;;;;7.82;7.05;;;22.90;98.80;;;;;;5111395;28;20232;-65
2022/04/27 11:20:05;;;;;;;10.10;6.88;;;23.30;99.90;;;;;;5112134;28;20275;-66
2022/04/27 11:22:41;;;;;;;8.18;7.13;;;23.90;99.90;;;;;;5095420;28;20200;-65
2022/04/27 11:25:08;;;;;;;9.90;7.10;;;23.60;98.60;;;;;;5107808;28;20172;-65
2022/04/27 11:27:35;;;;;;;7.97;7.13;;;23.30;98.00;;;;;;5092631;28;20637;-66
2022/04/27 11:30:07;;;;;;;7.13;6.53;;;23.10;99.90;;;;;;5105750;27;20532;-65
2022/04/27 11:32:35;;;;;;;7.68;6.90;;;22.90;96.80;;;;;;5132662;27;20172;-66
2022/04/27 11:35:00;;;;;;;10.43;7.65;;;22.70;98.10;;;;;;5118817;27;20173;-66
2022/04/27 11:37:26;;;;;;;9.38;7.15;;;23.00;97.70;;;;;;5103324;28;20195;-68
2022/04/27 11:39:53;;;;;;;9.18;7.07;;;23.30;99.90;;;;;;5094473;28;20198;-66
2022/04/27 11:42:18;;;;;;;11.80;7.05;;;23.30;98.30;;;;;;5100896;28;20197;-67
2022/04/27 11:44:52;;;;;;;10.45;8.02;;;22.90;98.10;;;;;;5101742;28;20716;-66
2022/04/27 11:47:31;;;;;;;8.70;7.90;;;22.60;99.90;;;;;;5098402;28;20215;-67
2022/04/27 11:50:03;;;;;;;9.90;7.63;;;22.50;98.30;;;;;;5111771;28;20177;-67
2022/04/27 11:52:36;;;;;;;8.95;7.32;;;22.80;99.90;;;;;;5105188;28;20180;-67
2022/04/27 11:55:08;;;;;;;9.15;8.25;;;23.40;98.00;;;;;;5089904;28;20177;-65
2022/04/27 11:57:34;;;;;;;8.82;7.93;;;23.50;97.70;;;;;;5107743;28;20184;-67
2022/04/27 12:00:02;;;;;;;9.05;8.15;;;23.30;97.50;;;;;;5111812;28;20699;-66
2022/04/27 12:02:28;;;;;;;8.40;7.47;;;23.40;98.70;;;;;;5094442;28;20569;-65
2022/04/27 12:04:58;;;;;;;8.70;7.88;;;23.90;98.70;;;;;;5095581;28;20173;-66
2022/04/27 12:07:24;;;;;;;9.27;8.48;;;23.60;96.40;;;;;;5110827;28;20230;-68
2022/04/27 12:09:56;;;;;;;8.57;7.75;;;23.10;97.80;;;;;;5107869;28;20180;-67
2022/04/27 12:12:22;;;;;;;8.90;8.00;;;23.20;99.20;;;;;;5097302;28;20180;-68
2022/04/27 12:14:48;;;;;;;8.40;7.60;;;23.10;97.30;;;;;;5109794;28;20548;-68
2022/04/27 12:17:39;;;;;;;14.15;8.35;;;22.50;96.40;;;;;;5097978;28;20284;-68
2022/04/27 12:20:06;;;;;;;9.60;8.57;;;22.20;98.60;;;;;;5091321;28;20182;-67
2022/04/27 12:22:32;;;;;;;9.40;8.45;;;22.30;99.90;;;;;;5105200;28;20240;-67
2022/04/27 12:25:01;;;;;;;12.63;9.25;;;22.30;99.90;;;;;;5093359;28;20212;-68
2022/04/27 12:27:28;;;;;;;11.20;9.38;;;22.20;99.70;;;;;;5090696;28;20197;-65
2022/04/27 12:30:07;;;;;;;10.45;9.30;;;22.30;99.90;;;;;;5103393;28;20184;-67
2022/04/27 12:32:33;;;;;;;10.32;8.52;;;22.60;99.60;;;;;;5109222;28;20246;-67
2022/04/27 12:37:54;;;;;;;10.15;9.15;;;23.20;96.60;;;;;;5099537;28;20196;-67
2022/04/27 12:40:20;;;;;;;9.35;8.45;;;23.40;99.10;;;;;;5091121;28;20186;-67
2022/04/27 12:43:20;;;;;;;10.82;8.90;;;23.60;99.80;;;;;;5097003;28;20258;-67
2022/04/27 12:46:04;;;;;;;9.85;8.77;;;23.70;97.70;;;;;;5051226;28;20208;-68
2022/04/27 12:48:31;;;;;;;9.93;8.35;;;23.40;97.00;;;;;;5095841;28;20515;-67
2022/04/27 12:50:58;;;;;;;10.60;9.23;;;23.20;98.90;;;;;;5095001;28;20587;-67
2022/04/27 12:53:24;;;;;;;9.70;8.70;;;23.10;97.60;;;;;;5109551;28;20195;-68
2022/04/27 12:56:08;;;;;;;11.60;9.20;;;22.80;97.60;;;;;;5120349;27;20748;-68
2022/04/27 12:58:34;;;;;;;10.52;8.75;;;22.80;99.90;;;;;;5135508;27;20243;-67
2022/04/27 13:01:00;;;;;;;10.27;9.27;;;22.80;97.10;;;;;;5113851;27;20181;-67
2022/04/27 13:03:26;;;;;;;9.30;8.50;;;22.70;97.80;;;;;;5102219;28;20169;-68
2022/04/27 13:05:52;;;;;;;9.80;8.90;;;22.80;97.50;;;;;;5110839;28;20192;-68